sensor_id;sensor_type;location;lat;lon;timestamp;pressure;altitude;pressure_sealevel;temperature
80581;BMP180;1474;51.460;7.150;2023-08-08T00:01:34;100394.00;;;20.10
80581;BMP180;1474;51.460;7.150;2023-08-08T00:04:00;100396.00;;;20.10
80581;BMP180;1474;51.460;7.150;2023-08-08T00:06:26;100394.00;;;20.10
80581;BMP180;1474;51.460;7.150;2023-08-08T00:08:52;100386.00;;;20.20
80581;BMP180;1474;51.460;7.150;2023-08-08T00:11:21;100385.00;;;20.10
80581;BMP180;1474;51.460;7.150;2023-08-08T00:13:47;100383.00;;;20.10
80581;BMP180;1474;51.460;7.150;2023-08-08T00:16:13;100370.00;;;20.10
80581;BMP180;1474;51.460;7.150;2023-08-08T00:18:38;100368.00;;;20.10
80581;BMP180;1474;51.460;7.150;2023-08-08T00:21:04;100375.00;;;20.10
80581;BMP180;1474;51.460;7.150;2023-08-08T00:23:30;100374.00;;;20.10
80581;BMP180;1474;51.460;7.150;2023-08-08T00:25:55;100383.00;;;20.10
80581;BMP180;1474;51.460;7.150;2023-08-08T00:28:21;100379.00;;;20.20
80581;BMP180;1474;51.460;7.150;2023-08-08T00:30:47;100386.00;;;20.10
80581;BMP180;1474;51.460;7.150;2023-08-08T00:33:12;100384.00;;;20.10
80581;BMP180;1474;51.460;7.150;2023-08-08T00:35:38;100386.00;;;20.10
80581;BMP180;1474;51.460;7.150;2023-08-08T00:38:04;100380.00;;;20.20
80581;BMP180;1474;51.460;7.150;2023-08-08T00:40:30;100383.00;;;20.10
80581;BMP180;1474;51.460;7.150;2023-08-08T00:42:55;100385.00;;;20.10
80581;BMP180;1474;51.460;7.150;2023-08-08T00:45:21;100380.00;;;20.10
80581;BMP180;1474;51.460;7.150;2023-08-08T00:47:47;100381.00;;;20.10
80581;BMP180;1474;51.460;7.150;2023-08-08T00:50:14;100382.00;;;20.10
80581;BMP180;1474;51.460;7.150;2023-08-08T00:52:41;100374.00;;;20.10
80581;BMP180;1474;51.460;7.150;2023-08-08T00:55:08;100375.00;;;20.10
80581;BMP180;1474;51.460;7.150;2023-08-08T00:57:34;100379.00;;;20.10
80581;BMP180;1474;51.460;7.150;2023-08-08T01:00:07;100376.00;;;20.10
80581;BMP180;1474;51.460;7.150;2023-08-08T01:02:35;100384.00;;;20.10
80581;BMP180;1474;51.460;7.150;2023-08-08T01:05:02;100381.00;;;20.10
80581;BMP180;1474;51.460;7.150;2023-08-08T01:08:07;100380.00;;;20.10
80581;BMP180;1474;51.460;7.150;2023-08-08T01:10:42;100374.00;;;20.10
80581;BMP180;1474;51.460;7.150;2023-08-08T01:13:19;100371.00;;;20.10
80581;BMP180;1474;51.460;7.150;2023-08-08T01:15:49;100373.00;;;20.10
80581;BMP180;1474;51.460;7.150;2023-08-08T01:18:15;100365.00;;;20.10
80581;BMP180;1474;51.460;7.150;2023-08-08T01:20:43;100359.00;;;20.10
80581;BMP180;1474;51.460;7.150;2023-08-08T01:26:09;100363.00;;;20.10
80581;BMP180;1474;51.460;7.150;2023-08-08T01:28:36;100357.00;;;20.10
80581;BMP180;1474;51.460;7.150;2023-08-08T01:31:01;100359.00;;;20.10
80581;BMP180;1474;51.460;7.150;2023-08-08T01:33:27;100354.00;;;20.10
80581;BMP180;1474;51.460;7.150;2023-08-08T01:36:09;100361.00;;;20.10
80581;BMP180;1474;51.460;7.150;2023-08-08T01:38:46;100361.00;;;20.10
80581;BMP180;1474;51.460;7.150;2023-08-08T01:41:15;100354.00;;;20.10
80581;BMP180;1474;51.460;7.150;2023-08-08T01:43:44;100362.00;;;20.10
80581;BMP180;1474;51.460;7.150;2023-08-08T01:46:11;100362.00;;;20.10
80581;BMP180;1474;51.460;7.150;2023-08-08T01:48:37;100365.00;;;20.10
80581;BMP180;1474;51.460;7.150;2023-08-08T01:51:05;100362.00;;;20.10
80581;BMP180;1474;51.460;7.150;2023-08-08T01:53:31;100365.00;;;20.10
80581;BMP180;1474;51.460;7.150;2023-08-08T01:55:57;100357.00;;;20.10
80581;BMP180;1474;51.460;7.150;2023-08-08T01:58:23;100362.00;;;20.10
80581;BMP180;1474;51.460;7.150;2023-08-08T02:00:48;100348.00;;;20.10
80581;BMP180;1474;51.460;7.150;2023-08-08T02:03:17;100352.00;;;20.10
80581;BMP180;1474;51.460;7.150;2023-08-08T02:05:43;100342.00;;;20.10
80581;BMP180;1474;51.460;7.150;2023-08-08T02:08:09;100330.00;;;20.10
80581;BMP180;1474;51.460;7.150;2023-08-08T02:10:34;100332.00;;;20.10
80581;BMP180;1474;51.460;7.150;2023-08-08T02:13:00;100319.00;;;20.10
80581;BMP180;1474;51.460;7.150;2023-08-08T02:15:26;100310.00;;;20.10
80581;BMP180;1474;51.460;7.150;2023-08-08T02:17:52;100308.00;;;20.10
80581;BMP180;1474;51.460;7.150;2023-08-08T02:20:18;100312.00;;;20.10
80581;BMP180;1474;51.460;7.150;2023-08-08T02:22:44;100311.00;;;20.10
80581;BMP180;1474;51.460;7.150;2023-08-08T02:25:09;100332.00;;;20.10
80581;BMP180;1474;51.460;7.150;2023-08-08T02:27:35;100324.00;;;20.10
80581;BMP180;1474;51.460;7.150;2023-08-08T02:30:01;100324.00;;;20.10
80581;BMP180;1474;51.460;7.150;2023-08-08T02:32:27;100325.00;;;20.10
80581;BMP180;1474;51.460;7.150;2023-08-08T02:34:53;100317.00;;;20.10
80581;BMP180;1474;51.460;7.150;2023-08-08T02:37:19;100317.00;;;20.10
80581;BMP180;1474;51.460;7.150;2023-08-08T02:39:44;100313.00;;;20.10
80581;BMP180;1474;51.460;7.150;2023-08-08T02:42:10;100326.00;;;20.10
80581;BMP180;1474;51.460;7.150;2023-08-08T02:44:36;100317.00;;;20.10
80581;BMP180;1474;51.460;7.150;2023-08-08T02:47:02;100331.00;;;20.10
80581;BMP180;1474;51.460;7.150;2023-08-08T02:49:28;100324.00;;;20.10
80581;BMP180;1474;51.460;7.150;2023-08-08T02:51:54;100317.00;;;20.10
80581;BMP180;1474;51.460;7.150;2023-08-08T02:54:20;100320.00;;;20.10
80581;BMP180;1474;51.460;7.150;2023-08-08T02:56:45;100318.00;;;20.10
80581;BMP180;1474;51.460;7.150;2023-08-08T02:59:11;100315.00;;;20.10
80581;BMP180;1474;51.460;7.150;2023-08-08T03:01:37;100312.00;;;20.10
80581;BMP180;1474;51.460;7.150;2023-08-08T03:04:05;100308.00;;;20.10
80581;BMP180;1474;51.460;7.150;2023-08-08T03:06:31;100307.00;;;20.10
80581;BMP180;1474;51.460;7.150;2023-08-08T03:08:57;100307.00;;;20.10
80581;BMP180;1474;51.460;7.150;2023-08-08T03:11:26;100308.00;;;20.10
80581;BMP180;1474;51.460;7.150;2023-08-08T03:13:51;100302.00;;;20.10
80581;BMP180;1474;51.460;7.150;2023-08-08T03:16:17;100299.00;;;20.10
80581;BMP180;1474;51.460;7.150;2023-08-08T03:18:43;100280.00;;;20.10
80581;BMP180;1474;51.460;7.150;2023-08-08T03:21:08;100295.00;;;20.00
80581;BMP180;1474;51.460;7.150;2023-08-08T03:23:34;100289.00;;;20.10
80581;BMP180;1474;51.460;7.150;2023-08-08T03:26:00;100286.00;;;20.10
80581;BMP180;1474;51.460;7.150;2023-08-08T03:28:26;100300.00;;;20.10
80581;BMP180;1474;51.460;7.150;2023-08-08T03:30:52;100299.00;;;20.10
80581;BMP180;1474;51.460;7.150;2023-08-08T03:33:17;100305.00;;;20.10
80581;BMP180;1474;51.460;7.150;2023-08-08T03:35:43;100309.00;;;20.10
80581;BMP180;1474;51.460;7.150;2023-08-08T03:38:09;100316.00;;;20.10
80581;BMP180;1474;51.460;7.150;2023-08-08T03:40:35;100313.00;;;20.10
80581;BMP180;1474;51.460;7.150;2023-08-08T03:43:01;100297.00;;;20.10
80581;BMP180;1474;51.460;7.150;2023-08-08T03:45:28;100293.00;;;20.10
80581;BMP180;1474;51.460;7.150;2023-08-08T03:47:54;100305.00;;;20.10
80581;BMP180;1474;51.460;7.150;2023-08-08T03:50:20;100291.00;;;20.10
80581;BMP180;1474;51.460;7.150;2023-08-08T03:52:46;100285.00;;;20.10
80581;BMP180;1474;51.460;7.150;2023-08-08T03:55:12;100275.00;;;20.10
80581;BMP180;1474;51.460;7.150;2023-08-08T03:57:37;100272.00;;;20.00
80581;BMP180;1474;51.460;7.150;2023-08-08T04:00:04;100284.00;;;20.10
80581;BMP180;1474;51.460;7.150;2023-08-08T04:02:30;100284.00;;;20.00
80581;BMP180;1474;51.460;7.150;2023-08-08T04:04:56;100293.00;;;20.10
80581;BMP180;1474;51.460;7.150;2023-08-08T04:07:22;100293.00;;;20.00
80581;BMP180;1474;51.460;7.150;2023-08-08T04:09:47;100297.00;;;20.00
80581;BMP180;1474;51.460;7.150;2023-08-08T04:12:13;100309.00;;;20.00
80581;BMP180;1474;51.460;7.150;2023-08-08T04:14:39;100300.00;;;20.00
80581;BMP180;1474;51.460;7.150;2023-08-08T04:17:05;100305.00;;;20.10
80581;BMP180;1474;51.460;7.150;2023-08-08T04:19:31;100298.00;;;20.10
80581;BMP180;1474;51.460;7.150;2023-08-08T04:21:56;100291.00;;;20.10
80581;BMP180;1474;51.460;7.150;2023-08-08T04:24:22;100291.00;;;20.00
80581;BMP180;1474;51.460;7.150;2023-08-08T04:26:48;100287.00;;;20.00
80581;BMP180;1474;51.460;7.150;2023-08-08T04:29:14;100289.00;;;20.00
80581;BMP180;1474;51.460;7.150;2023-08-08T04:31:39;100288.00;;;20.00
80581;BMP180;1474;51.460;7.150;2023-08-08T04:34:05;100277.00;;;20.00
80581;BMP180;1474;51.460;7.150;2023-08-08T04:36:31;100287.00;;;20.00
80581;BMP180;1474;51.460;7.150;2023-08-08T04:38:57;100291.00;;;20.00
80581;BMP180;1474;51.460;7.150;2023-08-08T04:41:25;100291.00;;;20.00
80581;BMP180;1474;51.460;7.150;2023-08-08T04:43:51;100288.00;;;20.00
80581;BMP180;1474;51.460;7.150;2023-08-08T04:46:16;100286.00;;;20.00
80581;BMP180;1474;51.460;7.150;2023-08-08T04:48:42;100283.00;;;20.00
80581;BMP180;1474;51.460;7.150;2023-08-08T04:51:09;100281.00;;;20.00
80581;BMP180;1474;51.460;7.150;2023-08-08T04:53:35;100284.00;;;20.00
80581;BMP180;1474;51.460;7.150;2023-08-08T04:56:00;100278.00;;;20.00
80581;BMP180;1474;51.460;7.150;2023-08-08T04:58:26;100271.00;;;20.00
80581;BMP180;1474;51.460;7.150;2023-08-08T05:00:52;100267.00;;;20.00
80581;BMP180;1474;51.460;7.150;2023-08-08T05:03:18;100261.00;;;20.00
80581;BMP180;1474;51.460;7.150;2023-08-08T05:05:44;100258.00;;;20.00
80581;BMP180;1474;51.460;7.150;2023-08-08T05:08:15;100258.00;;;20.00
80581;BMP180;1474;51.460;7.150;2023-08-08T05:10:41;100264.00;;;20.00
80581;BMP180;1474;51.460;7.150;2023-08-08T05:13:07;100275.00;;;20.00
80581;BMP180;1474;51.460;7.150;2023-08-08T05:15:32;100275.00;;;20.00
80581;BMP180;1474;51.460;7.150;2023-08-08T05:17:58;100286.00;;;20.00
80581;BMP180;1474;51.460;7.150;2023-08-08T05:20:25;100279.00;;;20.00
80581;BMP180;1474;51.460;7.150;2023-08-08T05:22:51;100280.00;;;20.00
80581;BMP180;1474;51.460;7.150;2023-08-08T05:25:16;100274.00;;;20.00
80581;BMP180;1474;51.460;7.150;2023-08-08T05:27:42;100277.00;;;20.00
80581;BMP180;1474;51.460;7.150;2023-08-08T05:30:08;100274.00;;;20.00
80581;BMP180;1474;51.460;7.150;2023-08-08T05:32:34;100279.00;;;20.10
80581;BMP180;1474;51.460;7.150;2023-08-08T05:35:00;100274.00;;;20.10
80581;BMP180;1474;51.460;7.150;2023-08-08T05:37:26;100288.00;;;20.00
80581;BMP180;1474;51.460;7.150;2023-08-08T05:39:53;100278.00;;;20.00
80581;BMP180;1474;51.460;7.150;2023-08-08T05:42:19;100279.00;;;20.00
80581;BMP180;1474;51.460;7.150;2023-08-08T05:44:45;100284.00;;;20.00
80581;BMP180;1474;51.460;7.150;2023-08-08T05:47:11;100272.00;;;20.00
80581;BMP180;1474;51.460;7.150;2023-08-08T05:49:38;100278.00;;;20.00
80581;BMP180;1474;51.460;7.150;2023-08-08T05:52:06;100293.00;;;20.00
80581;BMP180;1474;51.460;7.150;2023-08-08T05:54:31;100284.00;;;20.00
80581;BMP180;1474;51.460;7.150;2023-08-08T05:56:57;100284.00;;;20.00
80581;BMP180;1474;51.460;7.150;2023-08-08T05:59:23;100285.00;;;20.00
80581;BMP180;1474;51.460;7.150;2023-08-08T06:01:49;100289.00;;;20.00
80581;BMP180;1474;51.460;7.150;2023-08-08T06:04:17;100290.00;;;20.00
80581;BMP180;1474;51.460;7.150;2023-08-08T06:06:43;100296.00;;;20.00
80581;BMP180;1474;51.460;7.150;2023-08-08T06:09:09;100301.00;;;20.00
80581;BMP180;1474;51.460;7.150;2023-08-08T06:11:35;100292.00;;;20.00
80581;BMP180;1474;51.460;7.150;2023-08-08T06:14:01;100300.00;;;20.00
80581;BMP180;1474;51.460;7.150;2023-08-08T06:16:26;100285.00;;;20.10
80581;BMP180;1474;51.460;7.150;2023-08-08T06:18:53;100294.00;;;20.10
80581;BMP180;1474;51.460;7.150;2023-08-08T06:21:18;100299.00;;;20.10
80581;BMP180;1474;51.460;7.150;2023-08-08T06:23:44;100306.00;;;20.10
80581;BMP180;1474;51.460;7.150;2023-08-08T06:26:10;100303.00;;;20.00
80581;BMP180;1474;51.460;7.150;2023-08-08T06:28:36;100300.00;;;20.00
80581;BMP180;1474;51.460;7.150;2023-08-08T06:31:02;100300.00;;;20.00
80581;BMP180;1474;51.460;7.150;2023-08-08T06:33:28;100295.00;;;20.00
80581;BMP180;1474;51.460;7.150;2023-08-08T06:35:55;100296.00;;;20.00
80581;BMP180;1474;51.460;7.150;2023-08-08T06:38:21;100304.00;;;20.00
80581;BMP180;1474;51.460;7.150;2023-08-08T06:40:47;100303.00;;;20.00
80581;BMP180;1474;51.460;7.150;2023-08-08T06:43:12;100309.00;;;20.00
80581;BMP180;1474;51.460;7.150;2023-08-08T06:45:39;100305.00;;;20.00
80581;BMP180;1474;51.460;7.150;2023-08-08T06:48:05;100309.00;;;20.00
80581;BMP180;1474;51.460;7.150;2023-08-08T06:50:31;100310.00;;;20.10
80581;BMP180;1474;51.460;7.150;2023-08-08T06:52:57;100310.00;;;20.10
80581;BMP180;1474;51.460;7.150;2023-08-08T06:55:22;100303.00;;;20.00
80581;BMP180;1474;51.460;7.150;2023-08-08T06:57:48;100293.00;;;20.00
80581;BMP180;1474;51.460;7.150;2023-08-08T07:00:14;100300.00;;;20.00
80581;BMP180;1474;51.460;7.150;2023-08-08T07:02:41;100303.00;;;20.00
80581;BMP180;1474;51.460;7.150;2023-08-08T07:05:07;100306.00;;;20.10
80581;BMP180;1474;51.460;7.150;2023-08-08T07:07:35;100302.00;;;20.00
80581;BMP180;1474;51.460;7.150;2023-08-08T07:10:01;100300.00;;;20.00
80581;BMP180;1474;51.460;7.150;2023-08-08T07:12:29;100299.00;;;20.00
80581;BMP180;1474;51.460;7.150;2023-08-08T07:14:55;100299.00;;;20.00
80581;BMP180;1474;51.460;7.150;2023-08-08T07:17:20;100288.00;;;20.00
80581;BMP180;1474;51.460;7.150;2023-08-08T07:19:46;100279.00;;;20.10
80581;BMP180;1474;51.460;7.150;2023-08-08T07:22:12;100286.00;;;20.10
80581;BMP180;1474;51.460;7.150;2023-08-08T07:24:37;100286.00;;;20.10
80581;BMP180;1474;51.460;7.150;2023-08-08T07:27:04;100288.00;;;20.10
80581;BMP180;1474;51.460;7.150;2023-08-08T07:29:30;100288.00;;;20.10
80581;BMP180;1474;51.460;7.150;2023-08-08T07:31:57;100288.00;;;20.10
80581;BMP180;1474;51.460;7.150;2023-08-08T07:34:23;100291.00;;;20.10
80581;BMP180;1474;51.460;7.150;2023-08-08T07:36:50;100289.00;;;20.10
80581;BMP180;1474;51.460;7.150;2023-08-08T07:39:16;100287.00;;;20.10
80581;BMP180;1474;51.460;7.150;2023-08-08T07:41:42;100289.00;;;20.10
80581;BMP180;1474;51.460;7.150;2023-08-08T07:44:07;100280.00;;;20.10
80581;BMP180;1474;51.460;7.150;2023-08-08T07:46:36;100284.00;;;20.20
80581;BMP180;1474;51.460;7.150;2023-08-08T07:49:02;100269.00;;;20.20
80581;BMP180;1474;51.460;7.150;2023-08-08T07:51:30;100283.00;;;20.20
80581;BMP180;1474;51.460;7.150;2023-08-08T07:53:56;100275.00;;;20.20
80581;BMP180;1474;51.460;7.150;2023-08-08T07:56:22;100280.00;;;20.20
80581;BMP180;1474;51.460;7.150;2023-08-08T07:58:48;100268.00;;;20.20
80581;BMP180;1474;51.460;7.150;2023-08-08T08:01:14;100270.00;;;20.20
80581;BMP180;1474;51.460;7.150;2023-08-08T08:03:40;100267.00;;;20.20
80581;BMP180;1474;51.460;7.150;2023-08-08T08:06:06;100274.00;;;20.20
80581;BMP180;1474;51.460;7.150;2023-08-08T08:08:32;100280.00;;;20.30
80581;BMP180;1474;51.460;7.150;2023-08-08T08:10:58;100280.00;;;20.20
80581;BMP180;1474;51.460;7.150;2023-08-08T08:13:24;100273.00;;;20.30
80581;BMP180;1474;51.460;7.150;2023-08-08T08:15:50;100270.00;;;20.30
80581;BMP180;1474;51.460;7.150;2023-08-08T08:18:16;100277.00;;;20.30
80581;BMP180;1474;51.460;7.150;2023-08-08T08:20:46;100283.00;;;20.30
80581;BMP180;1474;51.460;7.150;2023-08-08T08:23:12;100273.00;;;20.30
80581;BMP180;1474;51.460;7.150;2023-08-08T08:25:38;100263.00;;;20.30
80581;BMP180;1474;51.460;7.150;2023-08-08T08:28:07;100273.00;;;20.30
80581;BMP180;1474;51.460;7.150;2023-08-08T08:30:33;100267.00;;;20.30
80581;BMP180;1474;51.460;7.150;2023-08-08T08:32:59;100269.00;;;20.40
80581;BMP180;1474;51.460;7.150;2023-08-08T08:35:26;100272.00;;;20.40
80581;BMP180;1474;51.460;7.150;2023-08-08T08:37:51;100270.00;;;20.40
80581;BMP180;1474;51.460;7.150;2023-08-08T08:40:17;100278.00;;;20.40
80581;BMP180;1474;51.460;7.150;2023-08-08T08:42:45;100271.00;;;20.40
80581;BMP180;1474;51.460;7.150;2023-08-08T08:45:12;100267.00;;;20.40
80581;BMP180;1474;51.460;7.150;2023-08-08T08:47:41;100269.00;;;20.40
80581;BMP180;1474;51.460;7.150;2023-08-08T08:50:09;100272.00;;;20.40
80581;BMP180;1474;51.460;7.150;2023-08-08T08:52:35;100269.00;;;20.40
80581;BMP180;1474;51.460;7.150;2023-08-08T08:55:02;100271.00;;;20.40
80581;BMP180;1474;51.460;7.150;2023-08-08T08:57:29;100263.00;;;20.40
80581;BMP180;1474;51.460;7.150;2023-08-08T08:59:54;100266.00;;;20.40
80581;BMP180;1474;51.460;7.150;2023-08-08T09:02:22;100273.00;;;20.50
80581;BMP180;1474;51.460;7.150;2023-08-08T09:04:48;100265.00;;;20.40
80581;BMP180;1474;51.460;7.150;2023-08-08T09:07:18;100269.00;;;20.40
80581;BMP180;1474;51.460;7.150;2023-08-08T09:09:46;100271.00;;;20.40
80581;BMP180;1474;51.460;7.150;2023-08-08T09:12:12;100278.00;;;20.40
80581;BMP180;1474;51.460;7.150;2023-08-08T09:14:41;100264.00;;;20.40
80581;BMP180;1474;51.460;7.150;2023-08-08T09:17:12;100258.00;;;20.40
80581;BMP180;1474;51.460;7.150;2023-08-08T09:19:44;100258.00;;;20.40
80581;BMP180;1474;51.460;7.150;2023-08-08T09:22:12;100259.00;;;20.50
80581;BMP180;1474;51.460;7.150;2023-08-08T09:24:40;100256.00;;;20.50
80581;BMP180;1474;51.460;7.150;2023-08-08T09:27:10;100270.00;;;20.40
80581;BMP180;1474;51.460;7.150;2023-08-08T09:29:38;100263.00;;;20.50
80581;BMP180;1474;51.460;7.150;2023-08-08T09:32:06;100260.00;;;20.50
80581;BMP180;1474;51.460;7.150;2023-08-08T09:34:32;100266.00;;;20.50
80581;BMP180;1474;51.460;7.150;2023-08-08T09:36:59;100260.00;;;20.40
80581;BMP180;1474;51.460;7.150;2023-08-08T09:39:26;100260.00;;;20.50
80581;BMP180;1474;51.460;7.150;2023-08-08T09:41:52;100257.00;;;20.50
80581;BMP180;1474;51.460;7.150;2023-08-08T09:44:18;100260.00;;;20.50
80581;BMP180;1474;51.460;7.150;2023-08-08T09:46:50;100252.00;;;20.50
80581;BMP180;1474;51.460;7.150;2023-08-08T09:49:15;100258.00;;;20.50
80581;BMP180;1474;51.460;7.150;2023-08-08T09:51:43;100260.00;;;20.50
80581;BMP180;1474;51.460;7.150;2023-08-08T09:54:09;100260.00;;;20.50
80581;BMP180;1474;51.460;7.150;2023-08-08T09:56:36;100259.00;;;20.50
80581;BMP180;1474;51.460;7.150;2023-08-08T09:59:05;100263.00;;;20.50
80581;BMP180;1474;51.460;7.150;2023-08-08T10:01:32;100257.00;;;20.50
80581;BMP180;1474;51.460;7.150;2023-08-08T10:03:59;100261.00;;;20.50
80581;BMP180;1474;51.460;7.150;2023-08-08T10:06:26;100259.00;;;20.50
80581;BMP180;1474;51.460;7.150;2023-08-08T10:08:52;100257.00;;;20.50
80581;BMP180;1474;51.460;7.150;2023-08-08T10:11:18;100255.00;;;20.50
80581;BMP180;1474;51.460;7.150;2023-08-08T10:13:49;100258.00;;;20.50
80581;BMP180;1474;51.460;7.150;2023-08-08T10:16:17;100252.00;;;20.50
80581;BMP180;1474;51.460;7.150;2023-08-08T10:18:46;100256.00;;;20.50
80581;BMP180;1474;51.460;7.150;2023-08-08T10:21:23;100268.00;;;20.50
80581;BMP180;1474;51.460;7.150;2023-08-08T10:23:49;100260.00;;;20.50
80581;BMP180;1474;51.460;7.150;2023-08-08T10:26:21;100264.00;;;20.50
80581;BMP180;1474;51.460;7.150;2023-08-08T10:28:58;100251.00;;;20.50
80581;BMP180;1474;51.460;7.150;2023-08-08T10:31:24;100247.00;;;20.50
80581;BMP180;1474;51.460;7.150;2023-08-08T10:34:02;100258.00;;;20.50
80581;BMP180;1474;51.460;7.150;2023-08-08T10:36:50;100249.00;;;20.50
80581;BMP180;1474;51.460;7.150;2023-08-08T10:39:19;100261.00;;;20.50
80581;BMP180;1474;51.460;7.150;2023-08-08T10:41:50;100250.00;;;20.50
80581;BMP180;1474;51.460;7.150;2023-08-08T10:44:24;100259.00;;;20.50
80581;BMP180;1474;51.460;7.150;2023-08-08T10:46:52;100269.00;;;20.50
80581;BMP180;1474;51.460;7.150;2023-08-08T10:49:19;100262.00;;;20.50
80581;BMP180;1474;51.460;7.150;2023-08-08T10:51:47;100267.00;;;20.50
80581;BMP180;1474;51.460;7.150;2023-08-08T10:54:32;100264.00;;;20.50
80581;BMP180;1474;51.460;7.150;2023-08-08T10:56:59;100268.00;;;20.50
80581;BMP180;1474;51.460;7.150;2023-08-08T10:59:37;100274.00;;;20.50
80581;BMP180;1474;51.460;7.150;2023-08-08T11:02:04;100274.00;;;20.50
80581;BMP180;1474;51.460;7.150;2023-08-08T11:04:30;100263.00;;;20.50
80581;BMP180;1474;51.460;7.150;2023-08-08T11:06:58;100267.00;;;20.50
80581;BMP180;1474;51.460;7.150;2023-08-08T11:09:25;100273.00;;;20.50
80581;BMP180;1474;51.460;7.150;2023-08-08T11:11:52;100268.00;;;20.50
80581;BMP180;1474;51.460;7.150;2023-08-08T11:14:20;100264.00;;;20.50
80581;BMP180;1474;51.460;7.150;2023-08-08T11:16:49;100274.00;;;20.50
80581;BMP180;1474;51.460;7.150;2023-08-08T11:19:15;100270.00;;;20.50
80581;BMP180;1474;51.460;7.150;2023-08-08T11:21:45;100280.00;;;20.50
80581;BMP180;1474;51.460;7.150;2023-08-08T11:24:12;100271.00;;;20.50
80581;BMP180;1474;51.460;7.150;2023-08-08T11:26:42;100264.00;;;20.50
80581;BMP180;1474;51.460;7.150;2023-08-08T11:29:09;100275.00;;;20.50
80581;BMP180;1474;51.460;7.150;2023-08-08T11:31:36;100272.00;;;20.50
80581;BMP180;1474;51.460;7.150;2023-08-08T11:34:03;100269.00;;;20.50
80581;BMP180;1474;51.460;7.150;2023-08-08T11:36:35;100268.00;;;20.50
80581;BMP180;1474;51.460;7.150;2023-08-08T11:39:06;100273.00;;;20.50
80581;BMP180;1474;51.460;7.150;2023-08-08T11:41:37;100276.00;;;20.60
80581;BMP180;1474;51.460;7.150;2023-08-08T11:44:07;100271.00;;;20.60
80581;BMP180;1474;51.460;7.150;2023-08-08T11:46:34;100264.00;;;20.60
80581;BMP180;1474;51.460;7.150;2023-08-08T11:49:05;100272.00;;;20.60
80581;BMP180;1474;51.460;7.150;2023-08-08T11:51:33;100264.00;;;20.60
80581;BMP180;1474;51.460;7.150;2023-08-08T11:54:02;100264.00;;;20.60
80581;BMP180;1474;51.460;7.150;2023-08-08T11:56:36;100267.00;;;20.60
80581;BMP180;1474;51.460;7.150;2023-08-08T11:59:02;100261.00;;;20.60
80581;BMP180;1474;51.460;7.150;2023-08-08T12:01:32;100264.00;;;20.60
80581;BMP180;1474;51.460;7.150;2023-08-08T12:04:03;100253.00;;;20.60
80581;BMP180;1474;51.460;7.150;2023-08-08T12:06:29;100253.00;;;20.60
80581;BMP180;1474;51.460;7.150;2023-08-08T12:08:55;100246.00;;;20.60
80581;BMP180;1474;51.460;7.150;2023-08-08T12:11:21;100244.00;;;20.60
80581;BMP180;1474;51.460;7.150;2023-08-08T12:13:47;100237.00;;;20.60
80581;BMP180;1474;51.460;7.150;2023-08-08T12:16:14;100239.00;;;20.60
80581;BMP180;1474;51.460;7.150;2023-08-08T12:18:41;100244.00;;;20.60
80581;BMP180;1474;51.460;7.150;2023-08-08T12:21:08;100241.00;;;20.60
80581;BMP180;1474;51.460;7.150;2023-08-08T12:23:35;100246.00;;;20.60
80581;BMP180;1474;51.460;7.150;2023-08-08T12:26:04;100236.00;;;20.50
80581;BMP180;1474;51.460;7.150;2023-08-08T12:28:33;100251.00;;;20.60
80581;BMP180;1474;51.460;7.150;2023-08-08T12:30:59;100250.00;;;20.50
80581;BMP180;1474;51.460;7.150;2023-08-08T12:33:25;100251.00;;;20.60
80581;BMP180;1474;51.460;7.150;2023-08-08T12:35:51;100238.00;;;20.60
80581;BMP180;1474;51.460;7.150;2023-08-08T12:38:16;100239.00;;;20.50
80581;BMP180;1474;51.460;7.150;2023-08-08T12:40:45;100238.00;;;20.50
80581;BMP180;1474;51.460;7.150;2023-08-08T12:43:11;100234.00;;;20.50
80581;BMP180;1474;51.460;7.150;2023-08-08T12:45:40;100240.00;;;20.60
80581;BMP180;1474;51.460;7.150;2023-08-08T12:48:06;100243.00;;;20.50
80581;BMP180;1474;51.460;7.150;2023-08-08T12:50:32;100243.00;;;20.60
80581;BMP180;1474;51.460;7.150;2023-08-08T12:52:58;100236.00;;;20.50
80581;BMP180;1474;51.460;7.150;2023-08-08T12:55:23;100251.00;;;20.60
80581;BMP180;1474;51.460;7.150;2023-08-08T12:57:49;100251.00;;;20.60
80581;BMP180;1474;51.460;7.150;2023-08-08T13:00:15;100240.00;;;20.60
80581;BMP180;1474;51.460;7.150;2023-08-08T13:02:43;100237.00;;;20.60
80581;BMP180;1474;51.460;7.150;2023-08-08T13:05:09;100245.00;;;20.60
80581;BMP180;1474;51.460;7.150;2023-08-08T13:07:38;100239.00;;;20.60
80581;BMP180;1474;51.460;7.150;2023-08-08T13:10:05;100245.00;;;20.60
80581;BMP180;1474;51.460;7.150;2023-08-08T13:12:31;100243.00;;;20.60
80581;BMP180;1474;51.460;7.150;2023-08-08T13:14:56;100243.00;;;20.60
80581;BMP180;1474;51.460;7.150;2023-08-08T13:17:22;100237.00;;;20.60
80581;BMP180;1474;51.460;7.150;2023-08-08T13:19:48;100242.00;;;20.60
80581;BMP180;1474;51.460;7.150;2023-08-08T13:22:14;100239.00;;;20.60
80581;BMP180;1474;51.460;7.150;2023-08-08T13:24:39;100235.00;;;20.60
80581;BMP180;1474;51.460;7.150;2023-08-08T13:27:05;100246.00;;;20.60
80581;BMP180;1474;51.460;7.150;2023-08-08T13:29:31;100245.00;;;20.60
80581;BMP180;1474;51.460;7.150;2023-08-08T13:31:56;100241.00;;;20.60
80581;BMP180;1474;51.460;7.150;2023-08-08T13:34:22;100242.00;;;20.60
80581;BMP180;1474;51.460;7.150;2023-08-08T13:36:48;100238.00;;;20.60
80581;BMP180;1474;51.460;7.150;2023-08-08T13:39:14;100237.00;;;20.60
80581;BMP180;1474;51.460;7.150;2023-08-08T13:41:39;100248.00;;;20.60
80581;BMP180;1474;51.460;7.150;2023-08-08T13:44:05;100246.00;;;20.60
80581;BMP180;1474;51.460;7.150;2023-08-08T13:46:31;100245.00;;;20.60
80581;BMP180;1474;51.460;7.150;2023-08-08T13:48:57;100249.00;;;20.60
80581;BMP180;1474;51.460;7.150;2023-08-08T13:51:23;100251.00;;;20.60
80581;BMP180;1474;51.460;7.150;2023-08-08T13:53:48;100252.00;;;20.60
80581;BMP180;1474;51.460;7.150;2023-08-08T13:56:15;100244.00;;;20.60
80581;BMP180;1474;51.460;7.150;2023-08-08T13:58:40;100242.00;;;20.60
80581;BMP180;1474;51.460;7.150;2023-08-08T14:01:09;100249.00;;;20.60
80581;BMP180;1474;51.460;7.150;2023-08-08T14:03:35;100249.00;;;20.60
80581;BMP180;1474;51.460;7.150;2023-08-08T14:06:01;100245.00;;;20.60
80581;BMP180;1474;51.460;7.150;2023-08-08T14:08:27;100247.00;;;20.60
80581;BMP180;1474;51.460;7.150;2023-08-08T14:10:53;100246.00;;;20.60